Time,TemperatureF,DewpointF,PressureIn,WindDirection,WindDirectionDegrees,WindSpeedMPH,WindSpeedGustMPH,Humidity,HourlyPrecipIn,Conditions,Clouds,dailyrainin,SoftwareType,DateUTC
2013-05-23 00:00:00,63.6,52.9,29.85,West,277,6.0,8.0,68,0.00,,,0.00,VWS V14.01,2013-05-23 05:00:00,
2013-05-23 00:01:00,63.2,52.5,29.86,WNW,286,4.0,7.0,68,0.00,,,0.00,VWS V14.01,2013-05-23 05:01:00,
2013-05-23 00:06:00,63.2,52.5,29.86,WNW,300,4.0,8.0,68,0.00,,,0.00,VWS V14.01,2013-05-23 05:06:00,
2013-05-23 00:11:00,63.1,52.4,29.86,West,272,4.0,8.0,68,0.00,,,0.00,VWS V14.01,2013-05-23 05:11:00,
2013-05-23 00:16:00,63.0,52.7,29.86,WNW,288,2.0,8.0,69,0.00,,,0.00,VWS V14.01,2013-05-23 05:16:00,
2013-05-23 00:21:00,63.0,52.3,29.86,NNW,333,6.0,8.0,68,0.00,,,0.00,VWS V14.01,2013-05-23 05:21:00,
2013-05-23 00:26:00,62.9,52.6,29.87,WNW,284,2.0,9.0,69,0.00,,,0.00,VWS V14.01,2013-05-23 05:26:00,
2013-05-23 00:30:00,63.4,53.1,29.86,West,281,0.0,8.0,69,0.00,,,0.00,VWS V14.01,2013-05-23 05:30:00,
2013-05-23 00:31:00,62.8,52.5,29.87,West,276,2.0,5.0,69,0.00,,,0.00,VWS V14.01,2013-05-23 05:31:00,
2013-05-23 00:36:00,62.7,52.4,29.87,West,274,2.0,6.0,69,0.00,,,0.00,VWS V14.01,2013-05-23 05:36:00,
2013-05-23 00:41:00,62.6,52.3,29.87,West,275,1.0,6.0,69,0.00,,,0.00,VWS V14.01,2013-05-23 05:41:00,
2013-05-23 00:46:00,62.5,52.2,29.87,WNW,294,5.0,6.0,69,0.00,,,0.00,VWS V14.01,2013-05-23 05:46:00,
2013-05-23 00:51:00,62.5,52.2,29.87,West,270,2.0,8.0,69,0.00,,,0.00,VWS V14.01,2013-05-23 05:51:00,
2013-05-23 00:56:00,62.4,52.1,29.87,West,276,2.0,8.0,69,0.00,,,0.00,VWS V14.01,2013-05-23 05:56:00,
2013-05-23 01:00:00,63.2,52.5,29.86,WNW,299,5.0,9.0,68,0.00,,,0.00,VWS V14.01,2013-05-23 06:00:00,
2013-05-23 01:01:00,62.3,52.0,29.87,WNW,283,1.0,5.0,69,0.00,,,0.00,VWS V14.01,2013-05-23 06:01:00,
2013-05-23 01:06:00,62.3,52.4,29.87,WNW,290,1.0,9.0,70,0.00,,,0.00,VWS V14.01,2013-05-23 06:06:00,
2013-05-23 01:11:00,62.2,52.3,29.87,WSW,247,2.0,9.0,70,0.00,,,0.00,VWS V14.01,2013-05-23 06:11:00,
2013-05-23 01:16:00,62.1,52.2,29.87,WNW,292,2.0,9.0,70,0.00,,,0.00,VWS V14.01,2013-05-23 06:16:00,
2013-05-23 01:21:00,62.0,52.1,29.87,WNW,292,1.0,9.0,70,0.00,,,0.00,VWS V14.01,2013-05-23 06:21:00,
2013-05-23 01:26:00,61.9,52.4,29.87,WNW,292,0.0,9.0,71,0.00,,,0.00,VWS V14.01,2013-05-23 06:26:00,
2013-05-23 01:30:00,62.8,52.5,29.87,West,277,5.0,9.0,69,0.00,,,0.00,VWS V14.01,2013-05-23 06:30:00,
2013-05-23 01:31:00,61.8,52.3,29.87,WNW,297,4.0,7.0,71,0.00,,,0.00,VWS V14.01,2013-05-23 06:31:00,
2013-05-23 01:36:00,61.8,52.3,29.87,WNW,303,2.0,7.0,71,0.00,,,0.00,VWS V14.01,2013-05-23 06:36:00,
2013-05-23 01:41:00,61.8,52.3,29.87,WNW,293,2.0,7.0,71,0.00,,,0.00,VWS V14.01,2013-05-23 06:41:00,
2013-05-23 01:46:00,61.7,52.2,29.87,NW,311,0.0,7.0,71,0.00,,,0.00,VWS V14.01,2013-05-23 06:46:00,
2013-05-23 01:51:00,61.6,52.5,29.87,WNW,282,4.0,7.0,72,0.00,,,0.00,VWS V14.01,2013-05-23 06:51:00,
2013-05-23 01:56:00,61.6,52.1,29.87,SW,214,2.0,7.0,71,0.00,,,0.00,VWS V14.01,2013-05-23 06:56:00,
2013-05-23 02:00:00,62.4,52.5,29.87,West,276,5.0,8.0,70,0.00,,,0.00,VWS V14.01,2013-05-23 07:00:00,
2013-05-23 02:01:00,61.5,52.0,29.87,West,260,1.0,6.0,71,0.00,,,0.00,VWS V14.01,2013-05-23 07:01:00,
2013-05-23 02:06:00,61.4,52.3,29.87,WNW,288,7.0,7.0,72,0.00,,,0.00,VWS V14.01,2013-05-23 07:06:00,
2013-05-23 02:11:00,61.4,52.3,29.87,WSW,253,1.0,7.0,72,0.00,,,0.00,VWS V14.01,2013-05-23 07:11:00,
2013-05-23 02:16:00,61.4,52.3,29.87,WNW,295,0.0,7.0,72,0.00,,,0.00,VWS V14.01,2013-05-23 07:16:00,
2013-05-23 02:21:00,61.3,52.2,29.87,West,277,2.0,7.0,72,0.00,,,0.00,VWS V14.01,2013-05-23 07:21:00,
2013-05-23 02:26:00,61.3,51.8,29.87,WNW,297,2.0,7.0,71,0.00,,,0.00,VWS V14.01,2013-05-23 07:26:00,
2013-05-23 02:30:00,61.9,52.4,29.88,WNW,285,6.0,9.0,71,0.00,,,0.00,VWS V14.01,2013-05-23 07:30:00,
2013-05-23 02:31:00,61.2,52.1,29.87,West,265,3.0,7.0,72,0.00,,,0.00,VWS V14.01,2013-05-23 07:31:00,
2013-05-23 02:36:00,61.2,52.1,29.88,WNW,290,5.0,7.0,72,0.00,,,0.00,VWS V14.01,2013-05-23 07:36:00,
2013-05-23 02:41:00,61.2,52.1,29.87,West,279,1.0,7.0,72,0.00,,,0.00,VWS V14.01,2013-05-23 07:41:00,
2013-05-23 02:46:00,61.1,52.0,29.87,NW,309,4.0,7.0,72,0.00,,,0.00,VWS V14.01,2013-05-23 07:46:00,
2013-05-23 02:56:00,60.8,52.1,29.87,West,266,6.0,8.0,73,0.00,,,0.00,VWS V14.01,2013-05-23 07:56:00,
2013-05-23 03:00:00,61.5,52.0,29.87,WNW,287,2.0,7.0,71,0.00,,,0.00,VWS V14.01,2013-05-23 08:00:00,
2013-05-23 03:01:00,60.6,51.9,29.87,WSW,252,0.0,4.0,73,0.00,,,0.00,VWS V14.01,2013-05-23 08:01:00,
2013-05-23 03:06:00,60.4,51.7,29.87,West,269,0.0,4.0,73,0.00,,,0.00,VWS V14.01,2013-05-23 08:06:00,
2013-05-23 03:11:00,60.3,52.0,29.87,West,269,0.0,4.0,74,0.00,,,0.00,VWS V14.01,2013-05-23 08:11:00,
2013-05-23 03:16:00,60.1,51.8,29.87,NW,304,2.0,5.0,74,0.00,,,0.00,VWS V14.01,2013-05-23 08:16:00,
2013-05-23 03:21:00,59.9,52.0,29.87,NW,304,1.0,5.0,75,0.00,,,0.00,VWS V14.01,2013-05-23 08:21:00,
2013-05-23 03:26:00,59.7,51.8,29.88,NW,304,1.0,5.0,75,0.00,,,0.00,VWS V14.01,2013-05-23 08:26:00,
2013-05-23 03:30:00,61.2,52.1,29.87,WNW,294,4.0,7.0,72,0.00,,,0.00,VWS V14.01,2013-05-23 08:30:00,
2013-05-23 03:31:00,59.5,51.9,29.88,NW,304,1.0,4.0,76,0.00,,,0.00,VWS V14.01,2013-05-23 08:31:00,
2013-05-23 03:36:00,59.4,51.8,29.88,NW,304,1.0,4.0,76,0.00,,,0.00,VWS V14.01,2013-05-23 08:36:00,
2013-05-23 03:41:00,59.3,51.8,29.88,West,265,2.0,5.0,76,0.00,,,0.00,VWS V14.01,2013-05-23 08:41:00,
2013-05-23 03:46:00,59.1,51.9,29.88,WNW,286,5.0,5.0,77,0.00,,,0.00,VWS V14.01,2013-05-23 08:46:00,
2013-05-23 03:51:00,58.9,51.7,29.88,WNW,286,2.0,5.0,77,0.00,,,0.00,VWS V14.01,2013-05-23 08:51:00,
2013-05-23 03:57:00,58.8,51.6,29.88,WNW,286,2.0,5.0,77,0.00,,,0.00,VWS V14.01,2013-05-23 08:57:00,
2013-05-23 04:00:00,60.7,52.0,29.87,West,262,2.0,8.0,73,0.00,,,0.00,VWS V14.01,2013-05-23 09:00:00,
2013-05-23 04:02:00,58.7,51.9,29.88,WNW,286,2.0,5.0,78,0.00,,,0.00,VWS V14.01,2013-05-23 09:02:00,
2013-05-23 04:07:00,58.5,51.7,29.88,WNW,287,4.0,7.0,78,0.00,,,0.00,VWS V14.01,2013-05-23 09:07:00,
2013-05-23 04:12:00,58.4,51.6,29.89,WNW,294,4.0,7.0,78,0.00,,,0.00,VWS V14.01,2013-05-23 09:12:00,
2013-05-23 04:17:00,58.3,51.5,29.89,West,267,3.0,7.0,78,0.00,,,0.00,VWS V14.01,2013-05-23 09:17:00,
2013-05-23 04:22:00,58.3,51.5,29.89,West,267,3.0,7.0,78,0.00,,,0.00,VWS V14.01,2013-05-23 09:22:00,
2013-05-23 04:27:00,58.2,51.7,29.89,WNW,282,4.0,7.0,79,0.00,,,0.00,VWS V14.01,2013-05-23 09:27:00,
2013-05-23 04:32:00,58.0,51.5,29.89,West,275,6.0,6.0,79,0.00,,,0.00,VWS V14.01,2013-05-23 09:32:00,
2013-05-23 04:37:00,57.9,51.4,29.89,WNW,288,4.0,6.0,79,0.00,,,0.00,VWS V14.01,2013-05-23 09:37:00,
2013-05-23 04:42:00,57.8,51.3,29.89,WNW,286,0.0,6.0,79,0.00,,,0.00,VWS V14.01,2013-05-23 09:42:00,
2013-05-23 04:47:00,57.7,51.6,29.89,WNW,285,2.0,8.0,80,0.00,,,0.00,VWS V14.01,2013-05-23 09:47:00,
2013-05-23 04:52:00,57.5,51.4,29.90,WNW,299,0.0,8.0,80,0.00,,,0.00,VWS V14.01,2013-05-23 09:52:00,
2013-05-23 04:57:00,57.4,51.3,29.90,WNW,293,6.0,8.0,80,0.00,,,0.00,VWS V14.01,2013-05-23 09:57:00,
2013-05-23 05:02:00,57.3,51.2,29.90,WNW,296,4.0,5.0,80,0.00,,,0.00,VWS V14.01,2013-05-23 10:02:00,
2013-05-23 05:07:00,57.2,51.4,29.91,WNW,296,0.0,5.0,81,0.00,,,0.00,VWS V14.01,2013-05-23 10:07:00,
2013-05-23 05:12:00,57.1,51.3,29.91,WNW,296,2.0,5.0,81,0.00,,,0.00,VWS V14.01,2013-05-23 10:12:00,
2013-05-23 05:17:00,57.0,51.2,29.91,WSW,248,1.0,7.0,81,0.00,,,0.00,VWS V14.01,2013-05-23 10:17:00,
2013-05-23 05:22:00,57.0,51.2,29.91,WSW,248,2.0,7.0,81,0.00,,,0.00,VWS V14.01,2013-05-23 10:22:00,
2013-05-23 05:27:00,56.9,51.1,29.91,WNW,284,2.0,7.0,81,0.00,,,0.00,VWS V14.01,2013-05-23 10:27:00,
2013-05-23 05:30:00,58.0,51.5,29.89,WNW,297,6.0,7.0,79,0.00,,,0.00,VWS V14.01,2013-05-23 10:30:00,
2013-05-23 05:32:00,56.8,51.0,29.92,WNW,292,1.0,11.0,81,0.00,,,0.00,VWS V14.01,2013-05-23 10:32:00,
2013-05-23 05:37:00,56.8,51.0,29.92,WSW,253,0.0,11.0,81,0.00,,,0.00,VWS V14.01,2013-05-23 10:37:00,
2013-05-23 05:42:00,56.7,50.9,29.92,WNW,292,6.0,11.0,81,0.00,,,0.00,VWS V14.01,2013-05-23 10:42:00,
2013-05-23 05:47:00,56.7,50.9,29.92,WNW,302,0.0,11.0,81,0.00,,,0.00,VWS V14.01,2013-05-23 10:47:00,
2013-05-23 05:52:00,56.6,50.8,29.92,WNW,300,4.0,11.0,81,0.00,,,0.00,VWS V14.01,2013-05-23 10:52:00,
2013-05-23 05:57:00,56.5,50.8,29.92,SW,230,4.0,11.0,81,0.00,,,0.00,VWS V14.01,2013-05-23 10:57:00,
2013-05-23 06:02:00,56.5,50.8,29.92,West,279,0.0,6.0,81,0.00,,,0.00,VWS V14.01,2013-05-23 11:02:00,
2013-05-23 06:07:00,56.4,50.7,29.93,WNW,302,4.0,6.0,81,0.00,,,0.00,VWS V14.01,2013-05-23 11:07:00,
2013-05-23 06:12:00,56.4,50.7,29.93,WNW,299,5.0,11.0,81,0.00,,,0.00,VWS V14.01,2013-05-23 11:12:00,
2013-05-23 06:17:00,56.5,50.8,29.94,WNW,297,8.0,11.0,81,0.00,,,0.00,VWS V14.01,2013-05-23 11:17:00,
2013-05-23 06:22:00,56.5,50.8,29.94,WNW,303,4.0,11.0,81,0.00,,,0.00,VWS V14.01,2013-05-23 11:22:00,
2013-05-23 06:27:00,56.5,50.8,29.94,West,281,2.0,11.0,81,0.00,,,0.00,VWS V14.01,2013-05-23 11:27:00,
2013-05-23 06:30:00,56.9,51.1,29.91,WNW,285,4.0,7.0,81,0.00,,,0.00,VWS V14.01,2013-05-23 11:30:00,
2013-05-23 06:32:00,56.6,50.8,29.94,West,264,4.0,11.0,81,0.00,,,0.00,VWS V14.01,2013-05-23 11:32:00,
2013-05-23 06:37:00,56.7,50.9,29.94,WSW,248,3.0,11.0,81,0.00,,,0.00,VWS V14.01,2013-05-23 11:37:00,
2013-05-23 06:42:00,56.8,51.0,29.94,West,262,3.0,11.0,81,0.00,,,0.00,VWS V14.01,2013-05-23 11:42:00,
2013-05-23 06:47:00,56.9,50.8,29.94,NW,307,2.0,12.0,80,0.00,,,0.00,VWS V14.01,2013-05-23 11:47:00,
2013-05-23 06:52:00,56.9,50.8,29.95,West,263,2.0,12.0,80,0.00,,,0.00,VWS V14.01,2013-05-23 11:52:00,
2013-05-23 06:57:00,57.0,51.2,29.95,WSW,238,5.0,12.0,81,0.00,,,0.00,VWS V14.01,2013-05-23 11:57:00,
2013-05-23 07:02:00,57.1,51.0,29.95,WNW,295,8.0,8.0,80,0.00,,,0.00,VWS V14.01,2013-05-23 12:02:00,
2013-05-23 07:07:00,57.3,51.2,29.95,WNW,298,2.0,8.0,80,0.00,,,0.00,VWS V14.01,2013-05-23 12:07:00,
2013-05-23 07:12:00,57.4,51.3,29.95,West,277,5.0,9.0,80,0.00,,,0.00,VWS V14.01,2013-05-23 12:12:00,
2013-05-23 07:17:00,57.5,51.4,29.95,West,274,7.0,11.0,80,0.00,,,0.00,VWS V14.01,2013-05-23 12:17:00,
2013-05-23 07:22:00,57.6,51.5,29.95,WNW,290,2.0,11.0,80,0.00,,,0.00,VWS V14.01,2013-05-23 12:22:00,
2013-05-23 07:27:00,57.8,51.3,29.95,WSW,256,4.0,11.0,79,0.00,,,0.00,VWS V14.01,2013-05-23 12:27:00,
2013-05-23 07:30:00,56.6,50.8,29.94,West,281,5.0,11.0,81,0.00,,,0.00,VWS V14.01,2013-05-23 12:30:00,
2013-05-23 07:32:00,58.0,51.5,29.95,West,261,4.0,8.0,79,0.00,,,0.00,VWS V14.01,2013-05-23 12:32:00,
2013-05-23 07:37:00,58.3,51.8,29.95,West,274,5.0,13.0,79,0.00,,,0.00,VWS V14.01,2013-05-23 12:37:00,
2013-05-23 07:42:00,58.5,51.7,29.96,WSW,246,8.0,13.0,78,0.00,,,0.00,VWS V14.01,2013-05-23 12:42:00,
2013-05-23 07:47:00,58.5,51.7,29.96,NW,313,2.0,13.0,78,0.00,,,0.00,VWS V14.01,2013-05-23 12:47:00,
2013-05-23 07:52:00,58.6,52.1,29.96,WNW,300,0.0,13.0,79,0.00,,,0.00,VWS V14.01,2013-05-23 12:52:00,
2013-05-23 07:57:00,58.7,52.2,29.96,West,270,1.0,14.0,79,0.00,,,0.00,VWS V14.01,2013-05-23 12:57:00,
2013-05-23 08:00:00,57.1,51.0,29.95,West,259,6.0,12.0,80,0.00,,,0.00,VWS V14.01,2013-05-23 13:00:00,
2013-05-23 08:02:00,58.7,51.9,29.96,WNW,292,5.0,9.0,78,0.00,,,0.00,VWS V14.01,2013-05-23 13:02:00,
2013-05-23 08:07:00,58.8,52.3,29.97,West,273,5.0,9.0,79,0.00,,,0.00,VWS V14.01,2013-05-23 13:07:00,
2013-05-23 08:12:00,58.9,52.1,29.97,WSW,258,2.0,12.0,78,0.00,,,0.00,VWS V14.01,2013-05-23 13:12:00,
2013-05-23 08:17:00,58.9,52.1,29.97,NW,306,7.0,12.0,78,0.00,,,0.00,VWS V14.01,2013-05-23 13:17:00,
2013-05-23 08:22:00,59.0,52.2,29.97,West,276,4.0,12.0,78,0.00,,,0.00,VWS V14.01,2013-05-23 13:22:00,
2013-05-23 08:27:00,59.1,52.3,29.97,WNW,288,8.0,12.0,78,0.00,,,0.00,VWS V14.01,2013-05-23 13:27:00,
2013-05-23 08:30:00,57.9,51.4,29.95,WSW,250,3.0,11.0,79,0.00,,,0.00,VWS V14.01,2013-05-23 13:30:00,
2013-05-23 08:32:00,59.2,52.3,29.97,West,277,0.0,4.0,78,0.00,,,0.00,VWS V14.01,2013-05-23 13:32:00,
2013-05-23 08:37:00,59.3,52.5,29.98,WNW,297,5.0,11.0,78,0.00,,,0.00,VWS V14.01,2013-05-23 13:37:00,
2013-05-23 08:42:00,59.3,52.8,29.98,WNW,282,7.0,15.0,79,0.00,,,0.00,VWS V14.01,2013-05-23 13:42:00,
2013-05-23 08:47:00,59.3,52.5,29.99,WSW,244,5.0,15.0,78,0.00,,,0.00,VWS V14.01,2013-05-23 13:47:00,
2013-05-23 08:52:00,59.4,52.5,29.99,West,267,4.0,15.0,78,0.00,,,0.00,VWS V14.01,2013-05-23 13:52:00,
2013-05-23 08:57:00,59.4,52.5,29.99,West,263,2.0,15.0,78,0.00,,,0.00,VWS V14.01,2013-05-23 13:57:00,
2013-05-23 09:00:00,58.7,51.9,29.96,West,276,2.0,14.0,78,0.00,,,0.00,VWS V14.01,2013-05-23 14:00:00,
2013-05-23 09:02:00,59.4,52.5,30.00,WSW,256,4.0,8.0,78,0.00,,,0.00,VWS V14.01,2013-05-23 14:02:00,
2013-05-23 09:07:00,59.4,52.5,30.00,NW,321,2.0,11.0,78,0.00,,,0.00,VWS V14.01,2013-05-23 14:07:00,
2013-05-23 09:12:00,59.5,53.0,30.00,NNW,328,1.0,12.0,79,0.00,,,0.00,VWS V14.01,2013-05-23 14:12:00,
2013-05-23 09:17:00,59.6,53.1,30.00,NW,312,6.0,12.0,79,0.00,,,0.00,VWS V14.01,2013-05-23 14:17:00,
2013-05-23 09:22:00,59.9,53.4,30.00,WNW,302,8.0,12.0,79,0.00,,,0.00,VWS V14.01,2013-05-23 14:22:00,
2013-05-23 09:27:00,60.0,53.5,30.00,WSW,247,0.0,16.0,79,0.00,,,0.00,VWS V14.01,2013-05-23 14:27:00,
2013-05-23 09:30:00,59.2,52.3,29.98,WNW,294,0.0,12.0,78,0.00,,,0.00,VWS V14.01,2013-05-23 14:30:00,
2013-05-23 09:32:00,60.1,53.2,30.00,WNW,294,8.0,12.0,78,0.00,,,0.00,VWS V14.01,2013-05-23 14:32:00,
2013-05-23 09:37:00,60.2,53.3,30.01,SSW,208,5.0,12.0,78,0.00,,,0.00,VWS V14.01,2013-05-23 14:37:00,
2013-05-23 09:42:00,60.2,53.7,30.01,West,271,5.0,12.0,79,0.00,,,0.00,VWS V14.01,2013-05-23 14:42:00,
2013-05-23 09:47:00,60.3,53.4,30.01,WNW,288,5.0,17.0,78,0.00,,,0.00,VWS V14.01,2013-05-23 14:47:00,
2013-05-23 09:52:00,60.3,53.8,30.01,West,273,4.0,17.0,79,0.00,,,0.00,VWS V14.01,2013-05-23 14:52:00,
2013-05-23 09:57:00,60.3,53.8,30.02,NW,315,4.0,17.0,79,0.00,,,0.00,VWS V14.01,2013-05-23 14:57:00,
2013-05-23 10:00:00,59.4,52.5,30.00,West,265,7.0,15.0,78,0.00,,,0.00,VWS V14.01,2013-05-23 15:00:00,
2013-05-23 10:02:00,60.3,53.8,30.01,WSW,247,0.0,5.0,79,0.00,,,0.00,VWS V14.01,2013-05-23 15:02:00,
2013-05-23 10:07:00,60.4,53.9,30.01,WNW,286,5.0,7.0,79,0.00,,,0.00,VWS V14.01,2013-05-23 15:07:00,
2013-05-23 10:12:00,60.5,54.3,30.01,NNW,342,0.0,7.0,80,0.00,,,0.00,VWS V14.01,2013-05-23 15:12:00,
2013-05-23 10:17:00,60.7,54.2,30.01,WNW,286,1.0,12.0,79,0.00,,,0.00,VWS V14.01,2013-05-23 15:17:00,
2013-05-23 10:22:00,60.9,54.3,30.01,WNW,302,4.0,12.0,79,0.00,,,0.00,VWS V14.01,2013-05-23 15:22:00,
2013-05-23 10:27:00,61.1,54.9,30.02,WNW,288,5.0,12.0,80,0.00,,,0.00,VWS V14.01,2013-05-23 15:27:00,
2013-05-23 10:30:00,60.0,53.5,30.00,WSW,242,5.0,16.0,79,0.00,,,0.00,VWS V14.01,2013-05-23 15:30:00,
2013-05-23 10:32:00,61.1,54.5,30.02,WNW,297,1.0,7.0,79,0.00,,,0.00,VWS V14.01,2013-05-23 15:32:00,
2013-05-23 10:37:00,61.1,54.2,30.02,West,270,4.0,13.0,78,0.00,,,0.00,VWS V14.01,2013-05-23 15:37:00,
2013-05-23 10:42:00,61.2,54.6,30.01,SW,227,0.0,13.0,79,0.00,,,0.00,VWS V14.01,2013-05-23 15:42:00,
2013-05-23 10:47:00,61.4,54.8,30.02,West,279,0.0,21.0,79,0.00,,,0.00,VWS V14.01,2013-05-23 15:47:00,
2013-05-23 10:52:00,61.8,55.2,30.01,NNE,22,1.0,21.0,79,0.00,,,0.00,VWS V14.01,2013-05-23 15:52:00,
2013-05-23 10:58:00,62.1,55.5,30.01,WNW,294,0.0,21.0,79,0.00,,,0.00,VWS V14.01,2013-05-23 15:58:00,
2013-05-23 11:00:00,60.4,53.9,30.02,West,281,0.0,17.0,79,0.00,,,0.00,VWS V14.01,2013-05-23 16:00:00,
2013-05-23 11:03:00,62.4,55.5,30.01,West,279,2.0,12.0,78,0.00,,,0.00,VWS V14.01,2013-05-23 16:03:00,
2013-05-23 11:08:00,62.8,55.5,30.01,WNW,297,4.0,12.0,77,0.00,,,0.00,VWS V14.01,2013-05-23 16:08:00,
2013-05-23 11:13:00,62.9,55.2,30.02,East,96,0.0,18.0,76,0.00,,,0.00,VWS V14.01,2013-05-23 16:13:00,
2013-05-23 11:18:00,62.8,55.5,30.02,WNW,286,5.0,18.0,77,0.00,,,0.00,VWS V14.01,2013-05-23 16:18:00,
2013-05-23 11:23:00,62.6,55.3,30.02,West,281,8.0,18.0,77,0.00,,,0.00,VWS V14.01,2013-05-23 16:23:00,
2013-05-23 11:28:00,62.6,55.7,30.02,NW,315,4.0,18.0,78,0.00,,,0.00,VWS V14.01,2013-05-23 16:28:00,
2013-05-23 11:30:00,61.1,54.5,30.01,West,278,2.0,12.0,79,0.00,,,0.00,VWS V14.01,2013-05-23 16:30:00,
2013-05-23 11:33:00,62.9,55.9,30.02,WNW,290,6.0,11.0,78,0.00,,,0.00,VWS V14.01,2013-05-23 16:33:00,
2013-05-23 11:38:00,63.0,56.0,30.03,WNW,296,6.0,15.0,78,0.00,,,0.00,VWS V14.01,2013-05-23 16:38:00,
2013-05-23 11:43:00,62.9,55.9,30.04,West,260,2.0,15.0,78,0.00,,,0.00,VWS V14.01,2013-05-23 16:43:00,
2013-05-23 11:48:00,62.7,56.1,30.04,WNW,298,7.0,15.0,79,0.00,,,0.00,VWS V14.01,2013-05-23 16:48:00,
2013-05-23 11:53:00,62.7,56.5,30.04,West,271,2.0,15.0,80,0.00,,,0.00,VWS V14.01,2013-05-23 16:53:00,
2013-05-23 11:58:00,62.4,56.5,30.05,WNW,288,4.0,15.0,81,0.00,,,0.00,VWS V14.01,2013-05-23 16:58:00,
2013-05-23 12:00:00,62.2,55.3,30.01,WNW,296,6.0,21.0,78,0.00,,,0.00,VWS V14.01,2013-05-23 17:00:00,
2013-05-23 12:03:00,61.8,56.6,30.05,West,262,0.0,6.0,83,0.00,,,0.00,VWS V14.01,2013-05-23 17:03:00,
2013-05-23 12:08:00,61.7,57.2,30.06,WSW,246,3.0,6.0,85,0.00,,,0.00,VWS V14.01,2013-05-23 17:08:00,
2013-05-23 12:13:00,61.8,57.2,30.06,WNW,290,1.0,6.0,85,0.00,,,0.00,VWS V14.01,2013-05-23 17:13:00,
2013-05-23 12:18:00,61.9,57.3,30.07,WNW,290,0.0,6.0,85,0.00,,,0.00,VWS V14.01,2013-05-23 17:18:00,
2013-05-23 12:23:00,62.0,57.1,30.07,WSW,253,0.0,6.0,84,0.00,,,0.00,VWS V14.01,2013-05-23 17:23:00,
2013-05-23 12:28:00,61.9,57.0,30.07,SSE,158,0.0,7.0,84,0.00,,,0.00,VWS V14.01,2013-05-23 17:28:00,
2013-05-23 12:30:00,62.7,56.1,30.02,West,271,4.0,18.0,79,0.00,,,0.00,VWS V14.01,2013-05-23 17:30:00,
2013-05-23 12:33:00,62.1,56.9,30.07,ESE,123,2.0,4.0,83,0.00,,,0.00,VWS V14.01,2013-05-23 17:33:00,
2013-05-23 12:38:00,62.4,56.5,30.07,SW,234,0.0,5.0,81,0.00,,,0.00,VWS V14.01,2013-05-23 17:38:00,
2013-05-23 12:43:00,62.2,55.3,30.07,WNW,294,4.0,9.0,78,0.00,,,0.00,VWS V14.01,2013-05-23 17:43:00,
2013-05-23 12:48:00,62.0,55.4,30.08,ENE,59,4.0,9.0,79,0.00,,,0.00,VWS V14.01,2013-05-23 17:48:00,
2013-05-23 12:53:00,62.1,55.5,30.08,SW,232,5.0,9.0,79,0.00,,,0.00,VWS V14.01,2013-05-23 17:53:00,
2013-05-23 12:58:00,62.6,56.7,30.08,SSW,207,0.0,9.0,81,0.00,,,0.00,VWS V14.01,2013-05-23 17:58:00,
2013-05-23 13:00:00,62.1,56.5,30.06,West,267,4.0,15.0,82,0.00,,,0.00,VWS V14.01,2013-05-23 18:00:00,
2013-05-23 13:03:00,62.9,55.9,30.08,East,96,5.0,5.0,78,0.00,,,0.00,VWS V14.01,2013-05-23 18:03:00,
2013-05-23 13:08:00,63.1,55.8,30.08,South,169,0.0,5.0,77,0.00,,,0.00,VWS V14.01,2013-05-23 18:08:00,
2013-05-23 13:13:00,62.9,55.6,30.08,WNW,290,2.0,7.0,77,0.00,,,0.00,VWS V14.01,2013-05-23 18:13:00,
2013-05-23 13:18:00,62.5,55.2,30.09,WNW,290,2.0,12.0,77,0.00,,,0.00,VWS V14.01,2013-05-23 18:18:00,
2013-05-23 13:23:00,62.2,55.3,30.09,WSW,257,3.0,12.0,78,0.00,,,0.00,VWS V14.01,2013-05-23 18:23:00,
2013-05-23 13:28:00,62.0,55.4,30.09,West,270,1.0,12.0,79,0.00,,,0.00,VWS V14.01,2013-05-23 18:28:00,
2013-05-23 13:30:00,62.0,57.1,30.07,NW,308,1.0,7.0,84,0.00,,,0.00,VWS V14.01,2013-05-23 18:30:00,
2013-05-23 13:33:00,62.1,55.2,30.09,SSE,155,0.0,1.0,78,0.00,,,0.00,VWS V14.01,2013-05-23 18:33:00,
2013-05-23 13:38:00,62.3,55.4,30.09,ESE,115,1.0,4.0,78,0.00,,,0.00,VWS V14.01,2013-05-23 18:38:00,
2013-05-23 13:43:00,63.1,56.1,30.09,WNW,291,5.0,7.0,78,0.00,,,0.00,VWS V14.01,2013-05-23 18:43:00,
2013-05-23 13:48:00,63.4,55.7,30.10,ENE,78,0.0,7.0,76,0.00,,,0.00,VWS V14.01,2013-05-23 18:48:00,
2013-05-23 13:53:00,63.4,55.3,30.10,WNW,289,5.0,7.0,75,0.00,,,0.00,VWS V14.01,2013-05-23 18:53:00,
2013-05-23 13:58:00,63.1,55.4,30.10,WNW,291,4.0,7.0,76,0.00,,,0.00,VWS V14.01,2013-05-23 18:58:00,
2013-05-23 14:00:00,62.7,55.8,30.07,SSE,154,1.0,9.0,78,0.00,,,0.00,VWS V14.01,2013-05-23 19:00:00,
2013-05-23 14:03:00,62.7,55.0,30.11,WNW,293,1.0,5.0,76,0.00,,,0.00,VWS V14.01,2013-05-23 19:03:00,
2013-05-23 14:08:00,62.6,54.9,30.11,West,263,0.0,5.0,76,0.00,,,0.00,VWS V14.01,2013-05-23 19:08:00,
2013-05-23 14:13:00,62.9,55.2,30.11,ESE,110,2.0,5.0,76,0.00,,,0.00,VWS V14.01,2013-05-23 19:13:00,
2013-05-23 14:18:00,63.2,55.9,30.11,WNW,288,5.0,7.0,77,0.00,,,0.00,VWS V14.01,2013-05-23 19:18:00,
2013-05-23 14:23:00,63.4,55.3,30.11,WNW,298,0.0,8.0,75,0.00,,,0.00,VWS V14.01,2013-05-23 19:23:00,
2013-05-23 14:28:00,63.7,55.6,30.11,SSW,212,3.0,8.0,75,0.00,,,0.00,VWS V14.01,2013-05-23 19:28:00,
2013-05-23 14:30:00,62.0,55.4,30.09,WSW,252,0.0,12.0,79,0.00,,,0.00,VWS V14.01,2013-05-23 19:30:00,
2013-05-23 14:33:00,63.7,54.9,30.11,WSW,251,1.0,14.0,73,0.00,,,0.00,VWS V14.01,2013-05-23 19:33:00,
2013-05-23 14:38:00,63.5,54.7,30.11,West,277,5.0,14.0,73,0.00,,,0.00,VWS V14.01,2013-05-23 19:38:00,
2013-05-23 14:43:00,63.0,54.6,30.12,WSW,240,2.0,14.0,74,0.00,,,0.00,VWS V14.01,2013-05-23 19:43:00,
2013-05-23 14:48:00,62.9,54.9,30.12,West,263,0.0,14.0,75,0.00,,,0.00,VWS V14.01,2013-05-23 19:48:00,
2013-05-23 14:53:00,62.8,54.8,30.12,WNW,285,1.0,14.0,75,0.00,,,0.00,VWS V14.01,2013-05-23 19:53:00,
2013-05-23 14:58:00,62.8,54.8,30.12,WNW,291,2.0,14.0,75,0.00,,,0.00,VWS V14.01,2013-05-23 19:58:00,
2013-05-23 15:00:00,62.9,54.9,30.10,WNW,293,0.0,7.0,75,0.00,,,0.00,VWS V14.01,2013-05-23 20:00:00,
2013-05-23 15:03:00,63.2,55.9,30.12,WNW,282,0.0,1.0,77,0.00,,,0.00,VWS V14.01,2013-05-23 20:03:00,
2013-05-23 15:08:00,63.7,55.3,30.13,North,355,0.0,5.0,74,0.00,,,0.00,VWS V14.01,2013-05-23 20:08:00,
2013-05-23 15:13:00,63.7,54.9,30.13,West,275,4.0,11.0,73,0.00,,,0.00,VWS V14.01,2013-05-23 20:13:00,
2013-05-23 15:18:00,63.3,54.5,30.13,WNW,296,2.0,11.0,73,0.00,,,0.00,VWS V14.01,2013-05-23 20:18:00,
2013-05-23 15:23:00,63.1,54.7,30.14,East,81,2.0,11.0,74,0.00,,,0.00,VWS V14.01,2013-05-23 20:23:00,
2013-05-23 15:28:00,63.0,55.0,30.14,West,271,2.0,11.0,75,0.00,,,0.00,VWS V14.01,2013-05-23 20:28:00,
2013-05-23 15:30:00,63.8,55.4,30.11,West,263,3.0,8.0,74,0.00,,,0.00,VWS V14.01,2013-05-23 20:30:00,
2013-05-23 15:33:00,62.9,54.5,30.14,WSW,254,0.0,3.0,74,0.00,,,0.00,VWS V14.01,2013-05-23 20:33:00,
2013-05-23 15:38:00,62.9,54.9,30.14,East,91,0.0,4.0,75,0.00,,,0.00,VWS V14.01,2013-05-23 20:38:00,
2013-05-23 15:43:00,62.9,54.5,30.14,East,101,0.0,4.0,74,0.00,,,0.00,VWS V14.01,2013-05-23 20:43:00,
2013-05-23 15:48:00,63.0,55.3,30.14,East,101,0.0,4.0,76,0.00,,,0.00,VWS V14.01,2013-05-23 20:48:00,
2013-05-23 15:53:00,63.2,55.2,30.14,South,179,0.0,4.0,75,0.00,,,0.00,VWS V14.01,2013-05-23 20:53:00,
2013-05-23 15:58:00,63.4,54.6,30.14,SE,127,0.0,5.0,73,0.00,,,0.00,VWS V14.01,2013-05-23 20:58:00,
2013-05-23 16:00:00,63.0,56.0,30.12,WNW,282,0.0,14.0,78,0.00,,,0.00,VWS V14.01,2013-05-23 21:00:00,
2013-05-23 16:03:00,63.7,55.3,30.14,SE,127,2.0,4.0,74,0.00,,,0.00,VWS V14.01,2013-05-23 21:03:00,
2013-05-23 16:08:00,64.1,54.9,30.14,WNW,295,1.0,9.0,72,0.00,,,0.00,VWS V14.01,2013-05-23 21:08:00,
2013-05-23 16:13:00,64.4,55.2,30.14,NNE,30,0.0,9.0,72,0.00,,,0.00,VWS V14.01,2013-05-23 21:13:00,
2013-05-23 16:18:00,64.7,55.5,30.14,South,184,0.0,9.0,72,0.00,,,0.00,VWS V14.01,2013-05-23 21:18:00,
2013-05-23 16:23:00,65.0,55.4,30.14,NNE,24,2.0,9.0,71,0.00,,,0.00,VWS V14.01,2013-05-23 21:23:00,
2013-05-23 16:28:00,65.3,54.9,30.14,NE,46,1.0,9.0,69,0.00,,,0.00,VWS V14.01,2013-05-23 21:28:00,
2013-05-23 16:30:00,62.9,54.5,30.14,West,259,0.0,11.0,74,0.00,,,0.00,VWS V14.01,2013-05-23 21:30:00,
2013-05-23 16:33:00,65.5,55.9,30.14,West,281,2.0,2.0,71,0.00,,,0.00,VWS V14.01,2013-05-23 21:33:00,
2013-05-23 16:38:00,65.7,55.3,30.14,WSW,244,0.0,4.0,69,0.00,,,0.00,VWS V14.01,2013-05-23 21:38:00,
2013-05-23 16:43:00,65.7,54.9,30.14,NNE,30,0.0,5.0,68,0.00,,,0.00,VWS V14.01,2013-05-23 21:43:00,
2013-05-23 16:48:00,65.6,55.2,30.14,NNW,336,2.0,5.0,69,0.00,,,0.00,VWS V14.01,2013-05-23 21:48:00,
2013-05-23 16:53:00,65.3,54.5,30.14,NNW,340,0.0,5.0,68,0.00,,,0.00,VWS V14.01,2013-05-23 21:53:00,
2013-05-23 16:58:00,65.0,55.0,30.14,NW,313,1.0,5.0,70,0.00,,,0.00,VWS V14.01,2013-05-23 21:58:00,
2013-05-23 17:00:00,63.5,54.7,30.14,SE,131,1.0,5.0,73,0.00,,,0.00,VWS V14.01,2013-05-23 22:00:00,
2013-05-23 17:03:00,64.9,55.3,30.14,NW,313,0.0,4.0,71,0.00,,,0.00,VWS V14.01,2013-05-23 22:03:00,
2013-05-23 17:08:00,64.9,55.3,30.14,SW,230,0.0,4.0,71,0.00,,,0.00,VWS V14.01,2013-05-23 22:08:00,
2013-05-23 17:13:00,64.8,55.6,30.14,NE,51,2.0,4.0,72,0.00,,,0.00,VWS V14.01,2013-05-23 22:13:00,
2013-05-23 17:18:00,64.9,55.3,30.15,West,273,0.0,4.0,71,0.00,,,0.00,VWS V14.01,2013-05-23 22:18:00,
2013-05-23 17:23:00,64.9,54.9,30.15,West,273,0.0,4.0,70,0.00,,,0.00,VWS V14.01,2013-05-23 22:23:00,
2013-05-23 17:28:00,65.0,54.6,30.15,West,273,0.0,4.0,69,0.00,,,0.00,VWS V14.01,2013-05-23 22:28:00,
2013-05-23 17:30:00,65.4,54.6,30.14,NE,36,1.0,9.0,68,0.00,,,0.00,VWS V14.01,2013-05-23 22:30:00,
2013-05-23 17:33:00,65.0,55.0,30.15,West,273,5.0,5.0,70,0.00,,,0.00,VWS V14.01,2013-05-23 22:33:00,
2013-05-23 17:38:00,64.8,54.4,30.15,WNW,284,0.0,8.0,69,0.00,,,0.00,VWS V14.01,2013-05-23 22:38:00,
2013-05-23 17:43:00,64.8,54.8,30.15,WNW,284,4.0,8.0,70,0.00,,,0.00,VWS V14.01,2013-05-23 22:43:00,
2013-05-23 17:48:00,64.7,54.7,30.15,WNW,285,0.0,8.0,70,0.00,,,0.00,VWS V14.01,2013-05-23 22:48:00,
2013-05-23 17:53:00,64.9,55.3,30.15,WNW,285,1.0,8.0,71,0.00,,,0.00,VWS V14.01,2013-05-23 22:53:00,
2013-05-23 17:58:00,64.9,54.1,30.15,WNW,286,1.0,8.0,68,0.00,,,0.00,VWS V14.01,2013-05-23 22:58:00,
2013-05-23 18:00:00,65.0,55.0,30.14,NW,313,0.0,5.0,70,0.00,,,0.00,VWS V14.01,2013-05-23 23:00:00,
2013-05-23 18:04:00,65.0,55.0,30.16,WNW,286,2.0,4.0,70,0.00,,,0.00,VWS V14.01,2013-05-23 23:04:00,
2013-05-23 18:09:00,64.9,54.1,30.15,WNW,286,0.0,4.0,68,0.00,,,0.00,VWS V14.01,2013-05-23 23:09:00,
2013-05-23 18:14:00,65.0,54.6,30.15,WNW,286,0.0,4.0,69,0.00,,,0.00,VWS V14.01,2013-05-23 23:14:00,
2013-05-23 18:19:00,65.2,54.8,30.16,WNW,286,0.0,4.0,69,0.00,,,0.00,VWS V14.01,2013-05-23 23:19:00,
2013-05-23 18:24:00,65.4,55.0,30.15,WNW,286,0.0,4.0,69,0.00,,,0.00,VWS V14.01,2013-05-23 23:24:00,
2013-05-23 18:29:00,65.6,54.8,30.16,WNW,286,2.0,5.0,68,0.00,,,0.00,VWS V14.01,2013-05-23 23:29:00,
2013-05-23 18:30:00,65.0,54.6,30.15,West,273,0.0,4.0,69,0.00,,,0.00,VWS V14.01,2013-05-23 23:30:00,
2013-05-23 18:34:00,65.7,54.9,30.16,WNW,286,0.0,4.0,68,0.00,,,0.00,VWS V14.01,2013-05-23 23:34:00,
2013-05-23 18:39:00,65.8,55.0,30.16,WNW,286,0.0,4.0,68,0.00,,,0.00,VWS V14.01,2013-05-23 23:39:00,
2013-05-23 18:44:00,66.1,54.8,30.16,WNW,286,0.0,4.0,67,0.00,,,0.00,VWS V14.01,2013-05-23 23:44:00,
2013-05-23 18:49:00,66.4,55.1,30.16,WNW,286,0.0,4.0,67,0.00,,,0.00,VWS V14.01,2013-05-23 23:49:00,
2013-05-23 18:54:00,66.6,54.9,30.16,WNW,286,0.0,4.0,66,0.00,,,0.00,VWS V14.01,2013-05-23 23:54:00,
2013-05-23 18:59:00,66.8,55.1,30.17,WNW,286,0.0,4.0,66,0.00,,,0.00,VWS V14.01,2013-05-23 23:59:00,
2013-05-23 19:00:00,64.9,54.5,30.15,WNW,286,0.0,8.0,69,0.00,,,0.00,VWS V14.01,2013-05-24 00:00:00,
2013-05-23 19:04:00,66.8,55.1,30.16,WNW,286,0.0,0.0,66,0.00,,,0.00,VWS V14.01,2013-05-24 00:04:00,
2013-05-23 19:09:00,66.8,54.7,30.17,WNW,286,0.0,1.0,65,0.00,,,0.00,VWS V14.01,2013-05-24 00:09:00,
2013-05-23 19:14:00,66.8,56.7,30.17,WNW,286,0.0,1.0,70,0.00,,,0.00,VWS V14.01,2013-05-24 00:14:00,
2013-05-23 19:19:00,66.7,56.2,30.17,WNW,286,0.0,1.0,69,0.00,,,0.00,VWS V14.01,2013-05-24 00:19:00,
2013-05-23 19:24:00,66.7,55.8,30.17,WNW,286,0.0,1.0,68,0.00,,,0.00,VWS V14.01,2013-05-24 00:24:00,
2013-05-23 19:29:00,66.8,55.9,30.17,WNW,286,0.0,1.0,68,0.00,,,0.00,VWS V14.01,2013-05-24 00:29:00,
2013-05-23 19:30:00,65.6,54.4,30.16,WNW,286,0.0,5.0,67,0.00,,,0.00,VWS V14.01,2013-05-24 00:30:00,
2013-05-23 19:34:00,66.5,56.0,30.17,WNW,286,0.0,0.0,69,0.00,,,0.00,VWS V14.01,2013-05-24 00:34:00,
2013-05-23 19:39:00,66.2,55.3,30.17,WNW,286,0.0,0.0,68,0.00,,,0.00,VWS V14.01,2013-05-24 00:39:00,
2013-05-23 19:44:00,66.0,54.7,30.17,WNW,286,0.0,1.0,67,0.00,,,0.00,VWS V14.01,2013-05-24 00:44:00,
2013-05-23 19:49:00,65.7,54.9,30.17,WNW,286,0.0,1.0,68,0.00,,,0.00,VWS V14.01,2013-05-24 00:49:00,
2013-05-23 19:54:00,65.4,55.0,30.17,WNW,286,0.0,1.0,69,0.00,,,0.00,VWS V14.01,2013-05-24 00:54:00,
2013-05-23 19:59:00,65.1,54.7,30.17,WNW,286,0.0,1.0,69,0.00,,,0.00,VWS V14.01,2013-05-24 00:59:00,
2013-05-23 20:00:00,66.8,55.1,30.17,WNW,286,0.0,4.0,66,0.00,,,0.00,VWS V14.01,2013-05-24 01:00:00,
2013-05-23 20:04:00,64.5,54.9,30.17,WNW,286,0.0,0.0,71,0.00,,,0.00,VWS V14.01,2013-05-24 01:04:00,
2013-05-23 20:09:00,63.7,54.5,30.17,WNW,286,0.0,1.0,72,0.00,,,0.00,VWS V14.01,2013-05-24 01:09:00,
2013-05-23 20:14:00,62.9,53.8,30.17,WNW,286,0.0,2.0,72,0.00,,,0.00,VWS V14.01,2013-05-24 01:14:00,
2013-05-23 20:19:00,62.3,53.5,30.17,WNW,286,0.0,2.0,73,0.00,,,0.00,VWS V14.01,2013-05-24 01:19:00,
2013-05-23 20:24:00,61.7,53.3,30.17,WNW,286,0.0,2.0,74,0.00,,,0.00,VWS V14.01,2013-05-24 01:24:00,
2013-05-23 20:29:00,61.1,53.1,30.18,WNW,286,0.0,2.0,75,0.00,,,0.00,VWS V14.01,2013-05-24 01:29:00,
2013-05-23 20:30:00,66.8,56.3,30.17,WNW,286,0.0,1.0,69,0.00,,,0.00,VWS V14.01,2013-05-24 01:30:00,
2013-05-23 20:34:00,60.7,53.1,30.17,WNW,286,1.0,2.0,76,0.00,,,0.00,VWS V14.01,2013-05-24 01:34:00,
2013-05-23 20:39:00,60.3,52.7,30.17,WNW,286,0.0,2.0,76,0.00,,,0.00,VWS V14.01,2013-05-24 01:39:00,
2013-05-23 20:44:00,60.0,52.8,30.18,WNW,286,0.0,2.0,77,0.00,,,0.00,VWS V14.01,2013-05-24 01:44:00,
2013-05-23 20:49:00,59.7,52.5,30.18,WNW,286,0.0,2.0,77,0.00,,,0.00,VWS V14.01,2013-05-24 01:49:00,
2013-05-23 20:54:00,59.5,52.6,30.18,WNW,286,0.0,2.0,78,0.00,,,0.00,VWS V14.01,2013-05-24 01:54:00,
2013-05-23 20:59:00,59.2,52.3,30.18,WNW,286,0.0,2.0,78,0.00,,,0.00,VWS V14.01,2013-05-24 01:59:00,
2013-05-23 21:00:00,65.0,55.4,30.17,WNW,286,0.0,1.0,71,0.00,,,0.00,VWS V14.01,2013-05-24 02:00:00,
2013-05-23 21:04:00,58.9,52.1,30.18,WNW,286,0.0,0.0,78,0.00,,,0.00,VWS V14.01,2013-05-24 02:04:00,
2013-05-23 21:09:00,58.6,51.8,30.18,WNW,286,0.0,0.0,78,0.00,,,0.00,VWS V14.01,2013-05-24 02:09:00,
2013-05-23 21:14:00,58.3,51.8,30.19,WNW,286,0.0,0.0,79,0.00,,,0.00,VWS V14.01,2013-05-24 02:14:00,
2013-05-23 21:19:00,58.1,52.0,30.18,WNW,286,0.0,0.0,80,0.00,,,0.00,VWS V14.01,2013-05-24 02:19:00,
2013-05-23 21:24:00,58.0,51.9,30.19,WNW,286,0.0,0.0,80,0.00,,,0.00,VWS V14.01,2013-05-24 02:24:00,
2013-05-23 21:29:00,57.9,52.1,30.19,WNW,286,0.0,0.0,81,0.00,,,0.00,VWS V14.01,2013-05-24 02:29:00,
2013-05-23 21:30:00,61.1,53.1,30.17,WNW,286,0.0,2.0,75,0.00,,,0.00,VWS V14.01,2013-05-24 02:30:00,
2013-05-23 21:34:00,57.8,52.0,30.19,WNW,286,0.0,0.0,81,0.00,,,0.00,VWS V14.01,2013-05-24 02:34:00,
2013-05-23 21:39:00,57.6,52.2,30.19,WNW,286,0.0,0.0,82,0.00,,,0.00,VWS V14.01,2013-05-24 02:39:00,
2013-05-23 21:44:00,57.5,52.1,30.20,WNW,286,0.0,0.0,82,0.00,,,0.00,VWS V14.01,2013-05-24 02:44:00,
2013-05-23 21:49:00,57.3,52.2,30.20,WNW,286,0.0,0.0,83,0.00,,,0.00,VWS V14.01,2013-05-24 02:49:00,
2013-05-23 21:54:00,57.1,52.0,30.20,WNW,286,0.0,0.0,83,0.00,,,0.00,VWS V14.01,2013-05-24 02:54:00,
2013-05-23 21:59:00,56.9,52.1,30.20,WNW,286,0.0,0.0,84,0.00,,,0.00,VWS V14.01,2013-05-24 02:59:00,
2013-05-23 22:00:00,59.1,52.3,30.18,WNW,286,0.0,2.0,78,0.00,,,0.00,VWS V14.01,2013-05-24 03:00:00,
2013-05-23 22:04:00,56.8,52.0,30.20,WNW,286,0.0,0.0,84,0.00,,,0.00,VWS V14.01,2013-05-24 03:04:00,
2013-05-23 22:09:00,56.6,51.8,30.20,WNW,286,0.0,0.0,84,0.00,,,0.00,VWS V14.01,2013-05-24 03:09:00,
2013-05-23 22:14:00,56.6,51.8,30.20,WNW,286,0.0,0.0,84,0.00,,,0.00,VWS V14.01,2013-05-24 03:14:00,
2013-05-23 22:19:00,56.5,51.4,30.21,WNW,286,0.0,0.0,83,0.00,,,0.00,VWS V14.01,2013-05-24 03:19:00,
2013-05-23 22:24:00,56.3,51.2,30.21,WNW,286,0.0,0.0,83,0.00,,,0.00,VWS V14.01,2013-05-24 03:24:00,
2013-05-23 22:29:00,56.2,51.1,30.21,WNW,286,0.0,0.0,83,0.00,,,0.00,VWS V14.01,2013-05-24 03:29:00,
2013-05-23 22:30:00,57.9,52.1,30.19,WNW,286,0.0,0.0,81,0.00,,,0.00,VWS V14.01,2013-05-24 03:30:00,
2013-05-23 22:34:00,56.1,51.0,30.22,WNW,286,0.0,0.0,83,0.00,,,0.00,VWS V14.01,2013-05-24 03:34:00,
2013-05-23 22:39:00,55.9,50.8,30.22,WNW,286,0.0,0.0,83,0.00,,,0.00,VWS V14.01,2013-05-24 03:39:00,
2013-05-23 22:44:00,55.8,51.0,30.22,WNW,286,0.0,0.0,84,0.00,,,0.00,VWS V14.01,2013-05-24 03:44:00,
2013-05-23 22:49:00,55.8,51.0,30.22,WNW,286,0.0,0.0,84,0.00,,,0.00,VWS V14.01,2013-05-24 03:49:00,
2013-05-23 22:54:00,55.7,51.3,30.23,WNW,286,0.0,0.0,85,0.00,,,0.00,VWS V14.01,2013-05-24 03:54:00,
2013-05-23 22:59:00,55.7,51.3,30.23,WNW,286,0.0,0.0,85,0.00,,,0.00,VWS V14.01,2013-05-24 03:59:00,
2013-05-23 23:00:00,56.9,52.1,30.20,WNW,286,0.0,0.0,84,0.00,,,0.00,VWS V14.01,2013-05-24 04:00:00,
2013-05-23 23:04:00,55.7,51.3,30.23,WNW,286,0.0,0.0,85,0.00,,,0.00,VWS V14.01,2013-05-24 04:04:00,
2013-05-23 23:09:00,55.6,51.2,30.23,WNW,286,0.0,0.0,85,0.00,,,0.00,VWS V14.01,2013-05-24 04:09:00,
2013-05-23 23:14:00,55.6,51.2,30.24,WNW,286,0.0,0.0,85,0.00,,,0.00,VWS V14.01,2013-05-24 04:14:00,
2013-05-23 23:19:00,55.5,51.1,30.24,WNW,286,0.0,0.0,85,0.00,,,0.00,VWS V14.01,2013-05-24 04:19:00,
2013-05-23 23:24:00,55.5,51.1,30.24,WNW,286,0.0,0.0,85,0.00,,,0.00,VWS V14.01,2013-05-24 04:24:00,
2013-05-23 23:29:00,55.7,51.3,30.24,WNW,288,1.0,2.0,85,0.00,,,0.00,VWS V14.01,2013-05-24 04:29:00,
2013-05-23 23:30:00,56.2,51.1,30.21,WNW,286,0.0,0.0,83,0.00,,,0.00,VWS V14.01,2013-05-24 04:30:00,
2013-05-23 23:34:00,56.0,51.2,30.24,WNW,288,0.0,0.0,84,0.00,,,0.00,VWS V14.01,2013-05-24 04:34:00,
2013-05-23 23:39:00,56.2,51.1,30.24,WNW,288,0.0,2.0,83,0.00,,,0.00,VWS V14.01,2013-05-24 04:39:00,
2013-05-23 23:44:00,56.4,51.0,30.24,WNW,288,0.0,2.0,82,0.00,,,0.00,VWS V14.01,2013-05-24 04:44:00,
2013-05-23 23:49:00,56.4,51.0,30.25,WNW,288,0.0,2.0,82,0.00,,,0.00,VWS V14.01,2013-05-24 04:49:00,
2013-05-23 23:55:00,56.3,50.9,30.25,WNW,288,0.0,2.0,82,0.00,,,0.00,VWS V14.01,2013-05-24 04:55:00,